Time,TemperatureF,DewpointF,PressureIn,WindDirection,WindDirectionDegrees,WindSpeedMPH,WindSpeedGustMPH,Humidity,HourlyPrecipIn,Conditions,Clouds,dailyrainin,SoftwareType,DateUTC
2013-03-29 00:02:00,66.5,38.0,29.95,ESE,108,0.0,0.0,35,0.00,,,0.00,Wunderground v.1.15,2013-03-29 07:02:00,
2013-03-29 00:07:00,66.6,36.6,29.94,SE,126,1.0,1.0,33,0.00,,,0.00,Wunderground v.1.15,2013-03-29 07:07:00,
2013-03-29 00:13:00,67.4,38.8,29.95,ESE,116,0.0,0.0,35,0.00,,,0.00,Wunderground v.1.15,2013-03-29 07:13:00,
2013-03-29 00:19:00,66.7,35.9,29.95,ESE,111,0.0,0.0,32,0.00,,,0.00,Wunderground v.1.15,2013-03-29 07:19:00,
2013-03-29 00:24:00,67.2,34.7,29.95,ESE,122,1.0,1.0,30,0.00,,,0.00,Wunderground v.1.15,2013-03-29 07:24:00,
2013-03-29 00:30:00,67.5,34.1,29.95,SE,124,2.0,2.0,29,0.00,,,0.00,Wunderground v.1.15,2013-03-29 07:30:00,
2013-03-29 00:35:00,67.8,34.4,29.95,ESE,120,1.0,2.0,29,0.00,,,0.00,Wunderground v.1.15,2013-03-29 07:35:00,
2013-03-29 00:41:00,67.8,33.5,29.95,ESE,121,1.0,1.0,28,0.00,,,0.00,Wunderground v.1.15,2013-03-29 07:41:00,
2013-03-29 00:46:00,67.8,33.5,29.95,ESE,116,1.0,2.0,28,0.00,,,0.00,Wunderground v.1.15,2013-03-29 07:46:00,
2013-03-29 00:52:00,67.8,34.4,29.95,WSW,239,1.0,1.0,29,0.00,,,0.00,Wunderground v.1.15,2013-03-29 07:52:00,
2013-03-29 00:58:00,66.9,33.6,29.95,WSW,250,0.0,1.0,29,0.00,,,0.00,Wunderground v.1.15,2013-03-29 07:58:00,
2013-03-29 01:04:00,64.0,45.0,29.95,NW,316,0.0,2.0,50,0.00,,,0.00,Wunderground v.1.15,2013-03-29 08:04:00,
2013-03-29 01:09:00,62.6,43.2,29.95,NW,316,0.0,2.0,49,0.00,,,0.00,Wunderground v.1.15,2013-03-29 08:09:00,
2013-03-29 01:14:00,62.4,42.4,29.96,NW,316,0.0,0.0,48,0.00,,,0.00,Wunderground v.1.15,2013-03-29 08:14:00,
2013-03-29 01:19:00,62.4,43.0,29.95,NW,316,0.0,0.0,49,0.00,,,0.00,Wunderground v.1.15,2013-03-29 08:19:00,
2013-03-29 01:25:00,62.4,43.0,29.95,NW,316,0.0,0.0,49,0.00,,,0.00,Wunderground v.1.15,2013-03-29 08:25:00,
2013-03-29 01:30:00,62.5,42.0,29.96,ESE,121,1.0,1.0,47,0.00,,,0.00,Wunderground v.1.15,2013-03-29 08:30:00,
2013-03-29 01:35:00,62.8,39.4,29.96,ESE,114,1.0,1.0,42,0.00,,,0.00,Wunderground v.1.15,2013-03-29 08:35:00,
2013-03-29 01:41:00,63.6,35.4,29.95,ESE,108,2.0,2.0,35,0.00,,,0.00,Wunderground v.1.15,2013-03-29 08:41:00,
2013-03-29 01:46:00,64.5,34.0,29.96,SE,126,2.0,3.0,32,0.00,,,0.00,Wunderground v.1.15,2013-03-29 08:46:00,
2013-03-29 01:51:00,65.2,33.8,29.96,ESE,121,1.0,3.0,31,0.00,,,0.00,Wunderground v.1.15,2013-03-29 08:51:00,
2013-03-29 01:57:00,65.5,33.2,29.96,SE,131,0.0,3.0,30,0.00,,,0.00,Wunderground v.1.15,2013-03-29 08:57:00,
2013-03-29 02:02:00,65.4,33.1,29.96,SE,125,0.0,1.0,30,0.00,,,0.00,Wunderground v.1.15,2013-03-29 09:02:00,
2013-03-29 02:07:00,65.1,33.7,29.96,SE,126,0.0,1.0,31,0.00,,,0.00,Wunderground v.1.15,2013-03-29 09:07:00,
2013-03-29 02:12:00,64.5,34.0,29.96,SE,126,1.0,1.0,32,0.00,,,0.00,Wunderground v.1.15,2013-03-29 09:12:00,
2013-03-29 02:17:00,64.0,34.3,29.96,SE,125,0.0,1.0,33,0.00,,,0.00,Wunderground v.1.15,2013-03-29 09:17:00,
2013-03-29 02:22:00,64.0,34.3,29.96,SE,126,0.0,0.0,33,0.00,,,0.00,Wunderground v.1.15,2013-03-29 09:22:00,
2013-03-29 02:27:00,64.5,34.0,29.96,SE,126,0.0,0.0,32,0.00,,,0.00,Wunderground v.1.15,2013-03-29 09:27:00,
2013-03-29 02:32:00,64.1,33.6,29.96,SE,126,0.0,0.0,32,0.00,,,0.00,Wunderground v.1.15,2013-03-29 09:32:00,
2013-03-29 02:37:00,63.8,33.4,29.96,SE,125,0.0,0.0,32,0.00,,,0.00,Wunderground v.1.15,2013-03-29 09:37:00,
2013-03-29 02:42:00,63.7,36.9,29.96,SE,126,0.0,0.0,37,0.00,,,0.00,Wunderground v.1.15,2013-03-29 09:42:00,
2013-03-29 02:47:00,62.9,41.8,29.96,SE,126,0.0,1.0,46,0.00,,,0.00,Wunderground v.1.15,2013-03-29 09:47:00,
2013-03-29 02:52:00,61.8,40.2,29.96,SE,126,0.0,0.0,45,0.00,,,0.00,Wunderground v.1.15,2013-03-29 09:52:00,
2013-03-29 02:57:00,61.2,41.3,29.96,SE,126,0.0,0.0,48,0.00,,,0.00,Wunderground v.1.15,2013-03-29 09:57:00,
2013-03-29 03:02:00,61.0,39.5,29.96,SE,126,0.0,0.0,45,0.00,,,0.00,Wunderground v.1.15,2013-03-29 10:02:00,
2013-03-29 03:07:00,60.9,38.8,29.96,SE,125,0.0,0.0,44,0.00,,,0.00,Wunderground v.1.15,2013-03-29 10:07:00,
2013-03-29 03:12:00,61.4,36.8,29.95,ESE,123,0.0,0.0,40,0.00,,,0.00,Wunderground v.1.15,2013-03-29 10:12:00,
2013-03-29 03:17:00,61.8,34.5,29.96,ESE,123,0.0,1.0,36,0.00,,,0.00,Wunderground v.1.15,2013-03-29 10:17:00,
2013-03-29 03:22:00,61.4,40.4,29.96,NNW,330,1.0,2.0,46,0.00,,,0.00,Wunderground v.1.15,2013-03-29 10:22:00,
2013-03-29 03:27:00,60.1,42.9,29.96,NNW,330,0.0,2.0,53,0.00,,,0.00,Wunderground v.1.15,2013-03-29 10:27:00,
2013-03-29 03:33:00,59.3,45.8,29.96,NNW,330,0.0,1.0,61,0.00,,,0.00,Wunderground v.1.15,2013-03-29 10:33:00,
2013-03-29 03:38:00,58.9,46.7,29.96,NNW,330,0.0,1.0,64,0.00,,,0.00,Wunderground v.1.15,2013-03-29 10:38:00,
2013-03-29 03:43:00,58.9,47.6,29.96,NNW,330,0.0,0.0,66,0.00,,,0.00,Wunderground v.1.15,2013-03-29 10:43:00,
2013-03-29 03:48:00,58.5,45.9,29.96,NNW,330,0.0,0.0,63,0.00,,,0.00,Wunderground v.1.15,2013-03-29 10:48:00,
2013-03-29 03:53:00,58.2,44.8,29.96,East,80,0.0,1.0,61,0.00,,,0.00,Wunderground v.1.15,2013-03-29 10:53:00,
2013-03-29 03:58:00,58.2,43.0,29.96,ENE,70,0.0,1.0,57,0.00,,,0.00,Wunderground v.1.15,2013-03-29 10:58:00,
2013-03-29 04:03:00,58.1,41.5,29.97,NNE,22,3.0,3.0,54,0.00,,,0.00,Wunderground v.1.15,2013-03-29 11:03:00,
2013-03-29 04:08:00,57.8,41.3,29.97,North,359,0.0,3.0,54,0.00,,,0.00,Wunderground v.1.15,2013-03-29 11:08:00,
2013-03-29 04:13:00,58.2,41.1,29.97,North,360,1.0,1.0,53,0.00,,,0.00,Wunderground v.1.15,2013-03-29 11:13:00,
2013-03-29 04:18:00,58.4,41.3,29.97,North,360,0.0,1.0,53,0.00,,,0.00,Wunderground v.1.15,2013-03-29 11:18:00,
2013-03-29 04:23:00,58.6,41.0,29.97,East,79,0.0,1.0,52,0.00,,,0.00,Wunderground v.1.15,2013-03-29 11:23:00,
2013-03-29 04:28:00,58.9,40.8,29.97,ESE,113,0.0,1.0,51,0.00,,,0.00,Wunderground v.1.15,2013-03-29 11:28:00,
2013-03-29 04:33:00,59.1,40.5,29.97,ESE,114,0.0,2.0,50,0.00,,,0.00,Wunderground v.1.15,2013-03-29 11:33:00,
2013-03-29 04:38:00,59.0,39.9,29.97,ESE,114,2.0,3.0,49,0.00,,,0.00,Wunderground v.1.15,2013-03-29 11:38:00,
2013-03-29 04:43:00,59.0,38.8,29.97,SE,129,2.0,3.0,47,0.00,,,0.00,Wunderground v.1.15,2013-03-29 11:43:00,
2013-03-29 04:48:00,59.0,37.7,29.97,ESE,119,1.0,3.0,45,0.00,,,0.00,Wunderground v.1.15,2013-03-29 11:48:00,
2013-03-29 04:53:00,59.0,36.5,29.97,ESE,107,4.0,4.0,43,0.00,,,0.00,Wunderground v.1.15,2013-03-29 11:53:00,
2013-03-29 04:58:00,59.3,36.2,29.97,ESE,115,0.0,4.0,42,0.00,,,0.00,Wunderground v.1.15,2013-03-29 11:58:00,
2013-03-29 05:03:00,59.4,36.9,29.98,ESE,119,0.0,2.0,43,0.00,,,0.00,Wunderground v.1.15,2013-03-29 12:03:00,
2013-03-29 05:08:00,58.7,39.0,29.98,ESE,119,0.0,2.0,48,0.00,,,0.00,Wunderground v.1.15,2013-03-29 12:08:00,
2013-03-29 05:13:00,57.7,37.6,29.98,ESE,120,0.0,1.0,47,0.00,,,0.00,Wunderground v.1.15,2013-03-29 12:13:00,
2013-03-29 05:18:00,57.4,35.6,29.98,ESE,122,0.0,1.0,44,0.00,,,0.00,Wunderground v.1.15,2013-03-29 12:18:00,
2013-03-29 05:23:00,57.9,34.9,29.98,ESE,113,1.0,3.0,42,0.00,,,0.00,Wunderground v.1.15,2013-03-29 12:23:00,
2013-03-29 05:29:00,58.4,34.8,29.99,SE,126,1.0,3.0,41,0.00,,,0.00,Wunderground v.1.15,2013-03-29 12:29:00,
2013-03-29 05:34:00,58.3,34.7,29.98,ESE,115,1.0,2.0,41,0.00,,,0.00,Wunderground v.1.15,2013-03-29 12:34:00,
2013-03-29 05:39:00,58.2,34.0,29.98,SE,126,1.0,2.0,40,0.00,,,0.00,Wunderground v.1.15,2013-03-29 12:39:00,
2013-03-29 05:44:00,58.4,34.2,29.99,ESE,121,1.0,1.0,40,0.00,,,0.00,Wunderground v.1.15,2013-03-29 12:44:00,
2013-03-29 05:49:00,58.1,33.9,29.99,SE,127,0.0,1.0,40,0.00,,,0.00,Wunderground v.1.15,2013-03-29 12:49:00,
2013-03-29 05:54:00,57.9,33.7,29.99,ESE,121,1.0,1.0,40,0.00,,,0.00,Wunderground v.1.15,2013-03-29 12:54:00,
2013-03-29 05:59:00,58.2,33.3,29.99,ESE,112,1.0,3.0,39,0.00,,,0.00,Wunderground v.1.15,2013-03-29 12:59:00,
2013-03-29 06:04:00,58.5,33.0,30.00,ESE,116,0.0,2.0,38,0.00,,,0.00,Wunderground v.1.15,2013-03-29 13:04:00,
2013-03-29 06:09:00,58.1,33.9,30.00,ESE,115,0.0,2.0,40,0.00,,,0.00,Wunderground v.1.15,2013-03-29 13:09:00,
2013-03-29 06:14:00,58.1,35.1,30.00,ESE,115,0.0,0.0,42,0.00,,,0.00,Wunderground v.1.15,2013-03-29 13:14:00,
2013-03-29 06:19:00,57.7,34.7,30.00,ESE,116,0.0,0.0,42,0.00,,,0.00,Wunderground v.1.15,2013-03-29 13:19:00,
2013-03-29 06:24:00,57.9,33.7,30.00,East,99,1.0,2.0,40,0.00,,,0.00,Wunderground v.1.15,2013-03-29 13:24:00,
2013-03-29 06:29:00,58.2,34.0,30.00,ESE,107,1.0,2.0,40,0.00,,,0.00,Wunderground v.1.15,2013-03-29 13:29:00,
2013-03-29 06:34:00,58.2,34.0,30.00,ESE,113,1.0,1.0,40,0.00,,,0.00,Wunderground v.1.15,2013-03-29 13:34:00,
2013-03-29 06:39:00,58.0,33.8,30.00,ESE,114,0.0,1.0,40,0.00,,,0.00,Wunderground v.1.15,2013-03-29 13:39:00,
2013-03-29 06:44:00,58.0,33.8,30.00,ESE,117,1.0,2.0,40,0.00,,,0.00,Wunderground v.1.15,2013-03-29 13:44:00,
2013-03-29 06:49:00,58.1,33.9,30.00,SE,131,2.0,3.0,40,0.00,,,0.00,Wunderground v.1.15,2013-03-29 13:49:00,
2013-03-29 06:54:00,58.6,33.7,30.01,ESE,119,1.0,2.0,39,0.00,,,0.00,Wunderground v.1.15,2013-03-29 13:54:00,
2013-03-29 06:59:00,59.3,33.7,30.01,East,101,2.0,2.0,38,0.00,,,0.00,Wunderground v.1.15,2013-03-29 13:59:00,
2013-03-29 07:04:00,59.8,34.1,30.01,SE,133,1.0,3.0,38,0.00,,,0.00,Wunderground v.1.15,2013-03-29 14:04:00,
2013-03-29 07:09:00,60.4,34.7,30.01,SE,127,1.0,3.0,38,0.00,,,0.00,Wunderground v.1.15,2013-03-29 14:09:00,
2013-03-29 07:14:00,60.9,34.4,30.01,SE,132,2.0,2.0,37,0.00,,,0.00,Wunderground v.1.15,2013-03-29 14:14:00,
2013-03-29 07:19:00,61.8,35.2,30.01,ESE,120,1.0,2.0,37,0.00,,,0.00,Wunderground v.1.15,2013-03-29 14:19:00,
2013-03-29 07:24:00,62.7,35.3,30.01,ESE,115,1.0,2.0,36,0.00,,,0.00,Wunderground v.1.15,2013-03-29 14:24:00,
2013-03-29 07:29:00,63.7,35.5,30.02,ESE,119,0.0,2.0,35,0.00,,,0.00,Wunderground v.1.15,2013-03-29 14:29:00,
2013-03-29 07:34:00,64.6,35.6,30.01,ESE,123,1.0,1.0,34,0.00,,,0.00,Wunderground v.1.15,2013-03-29 14:34:00,
2013-03-29 07:39:00,65.4,36.3,30.01,ESE,122,0.0,1.0,34,0.00,,,0.00,Wunderground v.1.15,2013-03-29 14:39:00,
2013-03-29 07:44:00,66.5,38.0,30.02,ESE,120,0.0,1.0,35,0.00,,,0.00,Wunderground v.1.15,2013-03-29 14:44:00,
2013-03-29 07:49:00,67.0,39.9,30.02,ESE,120,0.0,1.0,37,0.00,,,0.00,Wunderground v.1.15,2013-03-29 14:49:00,
2013-03-29 07:54:00,66.8,41.0,30.02,NNW,342,1.0,1.0,39,0.00,,,0.00,Wunderground v.1.15,2013-03-29 14:54:00,
2013-03-29 07:59:00,65.8,44.4,30.02,NNW,332,0.0,2.0,46,0.00,,,0.00,Wunderground v.1.15,2013-03-29 14:59:00,
2013-03-29 08:05:00,65.4,46.8,30.02,NNW,332,1.0,1.0,51,0.00,,,0.00,Wunderground v.1.15,2013-03-29 15:05:00,
2013-03-29 08:10:00,65.4,46.3,30.02,NNW,330,0.0,1.0,50,0.00,,,0.00,Wunderground v.1.15,2013-03-29 15:10:00,
2013-03-29 08:15:00,65.8,46.6,30.03,North,11,1.0,1.0,50,0.00,,,0.00,Wunderground v.1.15,2013-03-29 15:15:00,
2013-03-29 08:20:00,66.4,46.7,30.02,North,11,0.0,1.0,49,0.00,,,0.00,Wunderground v.1.15,2013-03-29 15:20:00,
2013-03-29 08:25:00,66.9,44.9,30.03,North,11,1.0,2.0,45,0.00,,,0.00,Wunderground v.1.15,2013-03-29 15:25:00,
2013-03-29 08:30:00,67.1,44.4,30.03,North,351,1.0,2.0,44,0.00,,,0.00,Wunderground v.1.15,2013-03-29 15:30:00,
2013-03-29 08:35:00,67.6,43.1,30.03,NNW,343,2.0,2.0,41,0.00,,,0.00,Wunderground v.1.15,2013-03-29 15:35:00,
2013-03-29 08:40:00,68.2,44.2,30.03,NNW,348,0.0,2.0,42,0.00,,,0.00,Wunderground v.1.15,2013-03-29 15:40:00,
2013-03-29 08:45:00,69.1,44.4,30.03,North,350,0.0,2.0,41,0.00,,,0.00,Wunderground v.1.15,2013-03-29 15:45:00,
2013-03-29 08:50:00,69.7,44.3,30.03,North,360,2.0,3.0,40,0.00,,,0.00,Wunderground v.1.15,2013-03-29 15:50:00,
2013-03-29 08:55:00,69.9,46.4,30.04,NNW,340,2.0,3.0,43,0.00,,,0.00,Wunderground v.1.15,2013-03-29 15:55:00,
2013-03-29 09:00:00,70.2,43.4,30.03,WNW,290,2.0,3.0,38,0.00,,,0.00,Wunderground v.1.15,2013-03-29 16:00:00,
2013-03-29 09:05:00,70.7,40.2,30.04,WNW,300,3.0,3.0,33,0.00,,,0.00,Wunderground v.1.15,2013-03-29 16:05:00,
2013-03-29 09:10:00,71.0,42.0,30.04,NW,308,3.0,4.0,35,0.00,,,0.00,Wunderground v.1.15,2013-03-29 16:10:00,
2013-03-29 09:15:00,71.0,42.7,30.04,WNW,287,1.0,4.0,36,0.00,,,0.00,Wunderground v.1.15,2013-03-29 16:15:00,
2013-03-29 09:20:00,71.1,43.5,30.04,WNW,288,2.0,4.0,37,0.00,,,0.00,Wunderground v.1.15,2013-03-29 16:20:00,
2013-03-29 09:25:00,71.4,40.8,30.04,WNW,294,0.0,4.0,33,0.00,,,0.00,Wunderground v.1.15,2013-03-29 16:25:00,
2013-03-29 09:30:00,71.8,41.9,30.04,WNW,284,1.0,4.0,34,0.00,,,0.00,Wunderground v.1.15,2013-03-29 16:30:00,
2013-03-29 09:35:00,72.1,40.6,30.04,West,278,1.0,4.0,32,0.00,,,0.00,Wunderground v.1.15,2013-03-29 16:35:00,
2013-03-29 09:40:00,72.7,42.7,30.04,WSW,252,2.0,2.0,34,0.00,,,0.00,Wunderground v.1.15,2013-03-29 16:40:00,
2013-03-29 09:45:00,73.2,42.4,30.04,NW,311,1.0,4.0,33,0.00,,,0.00,Wunderground v.1.15,2013-03-29 16:45:00,
2013-03-29 09:50:00,73.5,42.6,30.04,NW,305,2.0,2.0,33,0.00,,,0.00,Wunderground v.1.15,2013-03-29 16:50:00,
2013-03-29 09:55:00,73.8,40.4,30.04,West,259,1.0,4.0,30,0.00,,,0.00,Wunderground v.1.15,2013-03-29 16:55:00,
2013-03-29 10:00:00,74.4,41.8,30.04,WNW,285,1.0,2.0,31,0.00,,,0.00,Wunderground v.1.15,2013-03-29 17:00:00,
2013-03-29 10:05:00,74.8,42.1,30.04,NW,307,2.0,3.0,31,0.00,,,0.00,Wunderground v.1.15,2013-03-29 17:05:00,
2013-03-29 10:10:00,74.8,42.1,30.04,West,263,0.0,2.0,31,0.00,,,0.00,Wunderground v.1.15,2013-03-29 17:10:00,
2013-03-29 10:15:00,75.0,42.3,30.04,NW,308,2.0,4.0,31,0.00,,,0.00,Wunderground v.1.15,2013-03-29 17:15:00,
2013-03-29 10:20:00,75.3,42.6,30.04,NNE,32,2.0,2.0,31,0.00,,,0.00,Wunderground v.1.15,2013-03-29 17:20:00,
2013-03-29 10:25:00,75.7,43.7,30.04,WNW,289,3.0,4.0,32,0.00,,,0.00,Wunderground v.1.15,2013-03-29 17:25:00,
2013-03-29 10:30:00,76.2,43.3,30.04,West,273,5.0,5.0,31,0.00,,,0.00,Wunderground v.1.15,2013-03-29 17:30:00,
2013-03-29 10:35:00,76.8,40.3,30.04,West,281,2.0,5.0,27,0.00,,,0.00,Wunderground v.1.15,2013-03-29 17:35:00,
2013-03-29 10:40:00,77.4,40.8,30.04,WNW,287,3.0,4.0,27,0.00,,,0.00,Wunderground v.1.15,2013-03-29 17:40:00,
2013-03-29 10:45:00,77.5,41.8,30.04,WNW,293,2.0,6.0,28,0.00,,,0.00,Wunderground v.1.15,2013-03-29 17:45:00,
2013-03-29 10:50:00,77.7,42.9,30.04,WNW,283,2.0,4.0,29,0.00,,,0.00,Wunderground v.1.15,2013-03-29 17:50:00,
2013-03-29 10:55:00,78.1,42.3,30.04,West,273,2.0,6.0,28,0.00,,,0.00,Wunderground v.1.15,2013-03-29 17:55:00,
2013-03-29 11:00:00,78.5,44.5,30.04,NW,325,5.0,5.0,30,0.00,,,0.00,Wunderground v.1.15,2013-03-29 18:00:00,
2013-03-29 11:05:00,78.5,43.6,30.04,West,278,1.0,5.0,29,0.00,,,0.00,Wunderground v.1.15,2013-03-29 18:05:00,
2013-03-29 11:10:00,78.8,44.7,30.04,WNW,300,2.0,4.0,30,0.00,,,0.00,Wunderground v.1.15,2013-03-29 18:10:00,
2013-03-29 11:15:00,79.6,41.7,30.04,West,277,1.0,6.0,26,0.00,,,0.00,Wunderground v.1.15,2013-03-29 18:15:00,
2013-03-29 11:20:00,80.4,45.2,30.04,WSW,243,0.0,2.0,29,0.00,,,0.00,Wunderground v.1.15,2013-03-29 18:20:00,
2013-03-29 11:25:00,81.0,41.9,30.04,SW,231,2.0,4.0,25,0.00,,,0.00,Wunderground v.1.15,2013-03-29 18:25:00,
2013-03-29 11:30:00,81.0,40.8,30.04,West,278,2.0,2.0,24,0.00,,,0.00,Wunderground v.1.15,2013-03-29 18:30:00,
2013-03-29 11:35:00,80.9,42.8,30.04,North,354,1.0,5.0,26,0.00,,,0.00,Wunderground v.1.15,2013-03-29 18:35:00,
2013-03-29 11:40:00,81.7,43.5,30.03,WNW,299,4.0,4.0,26,0.00,,,0.00,Wunderground v.1.15,2013-03-29 18:40:00,
2013-03-29 11:45:00,81.9,42.6,30.03,West,270,2.0,6.0,25,0.00,,,0.00,Wunderground v.1.15,2013-03-29 18:45:00,
2013-03-29 11:50:00,82.3,44.0,30.03,WNW,297,4.0,4.0,26,0.00,,,0.00,Wunderground v.1.15,2013-03-29 18:50:00,
2013-03-29 11:55:00,82.2,42.9,30.03,West,281,0.0,6.0,25,0.00,,,0.00,Wunderground v.1.15,2013-03-29 18:55:00,
2013-03-29 12:00:00,82.3,43.0,30.03,West,265,2.0,2.0,25,0.00,,,0.00,Wunderground v.1.15,2013-03-29 19:00:00,
2013-03-29 12:05:00,82.6,45.2,30.03,NW,316,2.0,6.0,27,0.00,,,0.00,Wunderground v.1.15,2013-03-29 19:05:00,
2013-03-29 12:10:00,82.6,45.2,30.02,SSW,203,1.0,2.0,27,0.00,,,0.00,Wunderground v.1.15,2013-03-29 19:10:00,
2013-03-29 12:15:00,83.0,43.5,30.02,NW,312,3.0,4.0,25,0.00,,,0.00,Wunderground v.1.15,2013-03-29 19:15:00,
2013-03-29 12:20:00,82.7,45.3,30.02,WNW,285,3.0,5.0,27,0.00,,,0.00,Wunderground v.1.15,2013-03-29 19:20:00,
2013-03-29 12:25:00,83.1,44.7,30.02,WNW,283,3.0,6.0,26,0.00,,,0.00,Wunderground v.1.15,2013-03-29 19:25:00,
2013-03-29 12:30:00,83.5,45.0,30.02,West,281,4.0,4.0,26,0.00,,,0.00,Wunderground v.1.15,2013-03-29 19:30:00,
2013-03-29 12:35:00,83.8,44.2,30.01,West,281,3.0,7.0,25,0.00,,,0.00,Wunderground v.1.15,2013-03-29 19:35:00,
2013-03-29 12:40:00,83.8,44.2,30.01,West,269,6.0,6.0,25,0.00,,,0.00,Wunderground v.1.15,2013-03-29 19:40:00,
2013-03-29 12:45:00,83.6,44.1,30.01,West,263,4.0,6.0,25,0.00,,,0.00,Wunderground v.1.15,2013-03-29 19:45:00,
2013-03-29 12:50:00,83.9,43.2,30.01,WNW,285,3.0,4.0,24,0.00,,,0.00,Wunderground v.1.15,2013-03-29 19:50:00,
2013-03-29 12:55:00,84.2,43.5,30.00,NW,305,6.0,6.0,24,0.00,,,0.00,Wunderground v.1.15,2013-03-29 19:55:00,
2013-03-29 13:00:00,84.3,43.6,30.00,WNW,301,5.0,5.0,24,0.00,,,0.00,Wunderground v.1.15,2013-03-29 20:00:00,
2013-03-29 13:05:00,84.5,42.6,30.00,NW,326,5.0,6.0,23,0.00,,,0.00,Wunderground v.1.15,2013-03-29 20:05:00,
2013-03-29 13:11:00,85.2,40.8,30.00,West,270,8.0,9.0,21,0.00,,,0.00,Wunderground v.1.15,2013-03-29 20:11:00,
2013-03-29 13:16:00,85.5,41.1,30.00,West,280,1.0,11.0,21,0.00,,,0.00,Wunderground v.1.15,2013-03-29 20:16:00,
2013-03-29 13:21:00,85.7,41.3,29.99,West,280,3.0,4.0,21,0.00,,,0.00,Wunderground v.1.15,2013-03-29 20:21:00,
2013-03-29 13:26:00,85.8,38.8,29.99,West,262,4.0,7.0,19,0.00,,,0.00,Wunderground v.1.15,2013-03-29 20:26:00,
2013-03-29 13:31:00,85.7,42.5,29.99,West,263,5.0,5.0,22,0.00,,,0.00,Wunderground v.1.15,2013-03-29 20:31:00,
2013-03-29 13:36:00,86.5,40.7,29.98,WNW,294,5.0,8.0,20,0.00,,,0.00,Wunderground v.1.15,2013-03-29 20:36:00,
2013-03-29 13:41:00,86.9,41.0,29.98,WSW,255,5.0,7.0,20,0.00,,,0.00,Wunderground v.1.15,2013-03-29 20:41:00,
2013-03-29 13:46:00,86.2,40.4,29.98,WNW,290,6.0,8.0,20,0.00,,,0.00,Wunderground v.1.15,2013-03-29 20:46:00,
2013-03-29 13:51:00,86.1,40.3,29.98,NW,309,3.0,7.0,20,0.00,,,0.00,Wunderground v.1.15,2013-03-29 20:51:00,
2013-03-29 13:56:00,86.2,41.7,29.98,NW,308,6.0,8.0,21,0.00,,,0.00,Wunderground v.1.15,2013-03-29 20:56:00,
2013-03-29 14:01:00,86.4,40.6,29.98,NW,319,5.0,8.0,20,0.00,,,0.00,Wunderground v.1.15,2013-03-29 21:01:00,
2013-03-29 14:06:00,86.4,40.6,29.97,WNW,285,8.0,10.0,20,0.00,,,0.00,Wunderground v.1.15,2013-03-29 21:06:00,
2013-03-29 14:12:00,86.5,41.9,29.97,West,276,6.0,7.0,21,0.00,,,0.00,Wunderground v.1.15,2013-03-29 21:12:00,
2013-03-29 14:17:00,86.4,40.6,29.97,NW,304,0.0,10.0,20,0.00,,,0.00,Wunderground v.1.15,2013-03-29 21:17:00,
2013-03-29 14:22:00,87.0,41.1,29.97,WNW,283,5.0,11.0,20,0.00,,,0.00,Wunderground v.1.15,2013-03-29 21:22:00,
2013-03-29 14:27:00,87.4,41.4,29.97,West,278,2.0,11.0,20,0.00,,,0.00,Wunderground v.1.15,2013-03-29 21:27:00,
2013-03-29 14:32:00,87.6,40.2,29.96,WNW,283,6.0,8.0,19,0.00,,,0.00,Wunderground v.1.15,2013-03-29 21:32:00,
2013-03-29 14:37:00,87.9,39.1,29.96,WNW,298,5.0,9.0,18,0.00,,,0.00,Wunderground v.1.15,2013-03-29 21:37:00,
2013-03-29 14:42:00,88.0,41.9,29.96,West,269,9.0,10.0,20,0.00,,,0.00,Wunderground v.1.15,2013-03-29 21:42:00,
2013-03-29 14:47:00,87.7,38.9,29.96,WNW,285,5.0,11.0,18,0.00,,,0.00,Wunderground v.1.15,2013-03-29 21:47:00,
2013-03-29 14:52:00,87.8,43.0,29.96,West,266,5.0,8.0,21,0.00,,,0.00,Wunderground v.1.15,2013-03-29 21:52:00,
2013-03-29 14:57:00,88.0,40.6,29.95,WNW,291,8.0,10.0,19,0.00,,,0.00,Wunderground v.1.15,2013-03-29 21:57:00,
2013-03-29 15:02:00,87.9,39.1,29.95,West,263,6.0,7.0,18,0.00,,,0.00,Wunderground v.1.15,2013-03-29 22:02:00,
2013-03-29 15:07:00,87.8,37.6,29.95,West,266,5.0,8.0,17,0.00,,,0.00,Wunderground v.1.15,2013-03-29 22:07:00,
2013-03-29 15:12:00,87.9,37.6,29.95,WNW,283,3.0,8.0,17,0.00,,,0.00,Wunderground v.1.15,2013-03-29 22:12:00,
2013-03-29 15:17:00,87.9,40.5,29.95,West,278,7.0,9.0,19,0.00,,,0.00,Wunderground v.1.15,2013-03-29 22:17:00,
2013-03-29 15:22:00,88.1,37.8,29.95,WSW,256,7.0,7.0,17,0.00,,,0.00,Wunderground v.1.15,2013-03-29 22:22:00,
2013-03-29 15:27:00,87.6,38.8,29.94,SW,225,8.0,8.0,18,0.00,,,0.00,Wunderground v.1.15,2013-03-29 22:27:00,
2013-03-29 15:32:00,87.4,40.1,29.94,West,260,5.0,7.0,19,0.00,,,0.00,Wunderground v.1.15,2013-03-29 22:32:00,
2013-03-29 15:37:00,87.0,36.9,29.94,West,274,2.0,8.0,17,0.00,,,0.00,Wunderground v.1.15,2013-03-29 22:37:00,
2013-03-29 15:42:00,87.2,37.1,29.94,WNW,293,6.0,8.0,17,0.00,,,0.00,Wunderground v.1.15,2013-03-29 22:42:00,
2013-03-29 15:47:00,87.4,38.7,29.94,West,263,8.0,10.0,18,0.00,,,0.00,Wunderground v.1.15,2013-03-29 22:47:00,
2013-03-29 15:53:00,87.1,41.2,29.94,West,268,6.0,7.0,20,0.00,,,0.00,Wunderground v.1.15,2013-03-29 22:53:00,
2013-03-29 15:58:00,87.1,37.0,29.93,WSW,248,4.0,7.0,17,0.00,,,0.00,Wunderground v.1.15,2013-03-29 22:58:00,
2013-03-29 16:03:00,87.0,39.7,29.93,WNW,295,3.0,10.0,19,0.00,,,0.00,Wunderground v.1.15,2013-03-29 23:03:00,
2013-03-29 16:08:00,86.8,39.6,29.93,West,276,3.0,11.0,19,0.00,,,0.00,Wunderground v.1.15,2013-03-29 23:08:00,
2013-03-29 16:13:00,86.9,39.7,29.93,WNW,285,5.0,7.0,19,0.00,,,0.00,Wunderground v.1.15,2013-03-29 23:13:00,
2013-03-29 16:18:00,86.8,38.2,29.93,West,280,4.0,9.0,18,0.00,,,0.00,Wunderground v.1.15,2013-03-29 23:18:00,
2013-03-29 16:23:00,86.7,40.8,29.93,SW,217,5.0,7.0,20,0.00,,,0.00,Wunderground v.1.15,2013-03-29 23:23:00,
2013-03-29 16:28:00,86.5,39.3,29.93,West,269,5.0,8.0,19,0.00,,,0.00,Wunderground v.1.15,2013-03-29 23:28:00,
2013-03-29 16:33:00,86.6,36.6,29.93,West,263,2.0,6.0,17,0.00,,,0.00,Wunderground v.1.15,2013-03-29 23:33:00,
2013-03-29 16:38:00,86.7,38.1,29.92,WSW,250,4.0,6.0,18,0.00,,,0.00,Wunderground v.1.15,2013-03-29 23:38:00,
2013-03-29 16:43:00,86.6,36.6,29.92,West,269,5.0,6.0,17,0.00,,,0.00,Wunderground v.1.15,2013-03-29 23:43:00,
2013-03-29 16:48:00,86.4,40.6,29.92,West,262,3.0,6.0,20,0.00,,,0.00,Wunderground v.1.15,2013-03-29 23:48:00,
2013-03-29 16:53:00,86.3,39.2,29.92,WNW,283,3.0,5.0,19,0.00,,,0.00,Wunderground v.1.15,2013-03-29 23:53:00,
2013-03-29 16:58:00,86.3,36.3,29.92,West,269,4.0,6.0,17,0.00,,,0.00,Wunderground v.1.15,2013-03-29 23:58:00,
2013-03-29 17:03:00,86.4,34.9,29.92,West,267,4.0,7.0,16,0.00,,,0.00,Wunderground v.1.15,2013-03-30 00:03:00,
2013-03-29 17:08:00,86.4,36.4,29.92,West,273,2.0,7.0,17,0.00,,,0.00,Wunderground v.1.15,2013-03-30 00:08:00,
2013-03-29 17:13:00,86.3,36.3,29.92,West,273,6.0,7.0,17,0.00,,,0.00,Wunderground v.1.15,2013-03-30 00:13:00,
2013-03-29 17:18:00,86.1,41.6,29.92,SW,231,2.0,7.0,21,0.00,,,0.00,Wunderground v.1.15,2013-03-30 00:18:00,
2013-03-29 17:23:00,86.0,40.2,29.92,West,270,4.0,6.0,20,0.00,,,0.00,Wunderground v.1.15,2013-03-30 00:23:00,
2013-03-29 17:28:00,85.5,45.7,29.92,WNW,285,3.0,6.0,25,0.00,,,0.00,Wunderground v.1.15,2013-03-30 00:28:00,
2013-03-29 17:33:00,85.1,43.1,29.92,WNW,285,1.0,4.0,23,0.00,,,0.00,Wunderground v.1.15,2013-03-30 00:33:00,
2013-03-29 17:38:00,85.1,44.2,29.92,WNW,284,1.0,4.0,24,0.00,,,0.00,Wunderground v.1.15,2013-03-30 00:38:00,
2013-03-29 17:43:00,84.8,42.9,29.92,WNW,282,3.0,3.0,23,0.00,,,0.00,Wunderground v.1.15,2013-03-30 00:43:00,
2013-03-29 17:48:00,84.7,45.0,29.92,WNW,284,1.0,3.0,25,0.00,,,0.00,Wunderground v.1.15,2013-03-30 00:48:00,
2013-03-29 17:53:00,84.4,44.7,29.92,WNW,295,1.0,2.0,25,0.00,,,0.00,Wunderground v.1.15,2013-03-30 00:53:00,
2013-03-29 17:58:00,84.3,44.6,29.92,West,274,0.0,2.0,25,0.00,,,0.00,Wunderground v.1.15,2013-03-30 00:58:00,
2013-03-29 18:03:00,84.1,45.5,29.92,WNW,288,0.0,2.0,26,0.00,,,0.00,Wunderground v.1.15,2013-03-30 01:03:00,
2013-03-29 18:08:00,83.9,45.3,29.92,West,281,1.0,2.0,26,0.00,,,0.00,Wunderground v.1.15,2013-03-30 01:08:00,
2013-03-29 18:13:00,83.6,45.1,29.92,West,274,2.0,2.0,26,0.00,,,0.00,Wunderground v.1.15,2013-03-30 01:13:00,
2013-03-29 18:18:00,83.4,46.9,29.92,West,264,0.0,2.0,28,0.00,,,0.00,Wunderground v.1.15,2013-03-30 01:18:00,
2013-03-29 18:23:00,83.0,47.5,29.92,West,270,0.0,1.0,29,0.00,,,0.00,Wunderground v.1.15,2013-03-30 01:23:00,
2013-03-29 18:29:00,82.6,45.2,29.92,West,269,0.0,1.0,27,0.00,,,0.00,Wunderground v.1.15,2013-03-30 01:29:00,
2013-03-29 18:34:00,82.4,44.1,29.92,WSW,246,0.0,1.0,26,0.00,,,0.00,Wunderground v.1.15,2013-03-30 01:34:00,
2013-03-29 18:39:00,82.3,43.0,29.92,WSW,242,0.0,1.0,25,0.00,,,0.00,Wunderground v.1.15,2013-03-30 01:39:00,
2013-03-29 18:44:00,82.0,43.7,29.92,WSW,241,0.0,0.0,26,0.00,,,0.00,Wunderground v.1.15,2013-03-30 01:44:00,
2013-03-29 18:49:00,81.5,44.3,29.92,WSW,241,0.0,0.0,27,0.00,,,0.00,Wunderground v.1.15,2013-03-30 01:49:00,
2013-03-29 18:54:00,81.0,44.8,29.92,WSW,241,0.0,0.0,28,0.00,,,0.00,Wunderground v.1.15,2013-03-30 01:54:00,
2013-03-29 18:59:00,80.7,42.6,29.92,SW,233,0.0,1.0,26,0.00,,,0.00,Wunderground v.1.15,2013-03-30 01:59:00,
2013-03-29 19:04:00,80.5,42.4,29.92,SW,233,0.0,1.0,26,0.00,,,0.00,Wunderground v.1.15,2013-03-30 02:04:00,
2013-03-29 19:09:00,80.5,42.4,29.92,SW,229,0.0,2.0,26,0.00,,,0.00,Wunderground v.1.15,2013-03-30 02:09:00,
2013-03-29 19:14:00,80.1,42.1,29.92,SW,229,0.0,1.0,26,0.00,,,0.00,Wunderground v.1.15,2013-03-30 02:14:00,
2013-03-29 19:19:00,79.7,41.8,29.92,SW,228,0.0,1.0,26,0.00,,,0.00,Wunderground v.1.15,2013-03-30 02:19:00,
2013-03-29 19:24:00,79.9,41.9,29.92,SW,231,0.0,2.0,26,0.00,,,0.00,Wunderground v.1.15,2013-03-30 02:24:00,
2013-03-29 19:29:00,79.8,41.9,29.92,SSW,205,0.0,2.0,26,0.00,,,0.00,Wunderground v.1.15,2013-03-30 02:29:00,
2013-03-29 19:34:00,79.7,40.8,29.92,SSE,155,0.0,2.0,25,0.00,,,0.00,Wunderground v.1.15,2013-03-30 02:34:00,
2013-03-29 19:39:00,79.6,40.7,29.92,SE,139,0.0,2.0,25,0.00,,,0.00,Wunderground v.1.15,2013-03-30 02:39:00,
2013-03-29 19:44:00,79.2,43.3,29.93,SE,135,0.0,1.0,28,0.00,,,0.00,Wunderground v.1.15,2013-03-30 02:44:00,
2013-03-29 19:49:00,78.2,43.3,29.93,SE,136,0.0,1.0,29,0.00,,,0.00,Wunderground v.1.15,2013-03-30 02:49:00,
2013-03-29 19:54:00,77.7,41.0,29.93,SE,135,0.0,0.0,27,0.00,,,0.00,Wunderground v.1.15,2013-03-30 02:54:00,
2013-03-29 19:59:00,77.6,39.0,29.93,SE,135,0.0,0.0,25,0.00,,,0.00,Wunderground v.1.15,2013-03-30 02:59:00,
2013-03-29 20:05:00,77.4,39.8,29.93,SE,136,0.0,0.0,26,0.00,,,0.00,Wunderground v.1.15,2013-03-30 03:05:00,
2013-03-29 20:10:00,77.0,38.5,29.93,SSE,162,0.0,1.0,25,0.00,,,0.00,Wunderground v.1.15,2013-03-30 03:10:00,
2013-03-29 20:15:00,77.0,39.5,29.93,SSE,160,1.0,2.0,26,0.00,,,0.00,Wunderground v.1.15,2013-03-30 03:15:00,
2013-03-29 20:20:00,77.0,39.5,29.94,SSW,197,0.0,2.0,26,0.00,,,0.00,Wunderground v.1.15,2013-03-30 03:20:00,
2013-03-29 20:25:00,77.0,39.5,29.94,SW,229,0.0,0.0,26,0.00,,,0.00,Wunderground v.1.15,2013-03-30 03:25:00,
2013-03-29 20:30:00,76.8,39.3,29.94,SW,226,1.0,1.0,26,0.00,,,0.00,Wunderground v.1.15,2013-03-30 03:30:00,
2013-03-29 20:35:00,76.3,40.8,29.94,WSW,242,1.0,3.0,28,0.00,,,0.00,Wunderground v.1.15,2013-03-30 03:35:00,
2013-03-29 20:40:00,75.4,45.8,29.95,West,273,1.0,1.0,35,0.00,,,0.00,Wunderground v.1.15,2013-03-30 03:40:00,
2013-03-29 20:45:00,74.6,44.4,29.95,SSW,201,0.0,2.0,34,0.00,,,0.00,Wunderground v.1.15,2013-03-30 03:45:00,
2013-03-29 20:50:00,74.2,42.4,29.95,SSW,201,0.0,0.0,32,0.00,,,0.00,Wunderground v.1.15,2013-03-30 03:50:00,
2013-03-29 20:55:00,74.0,42.3,29.95,SSW,201,0.0,0.0,32,0.00,,,0.00,Wunderground v.1.15,2013-03-30 03:55:00,
2013-03-29 21:00:00,73.5,43.4,29.96,West,271,0.0,3.0,34,0.00,,,0.00,Wunderground v.1.15,2013-03-30 04:00:00,
2013-03-29 21:05:00,73.4,44.1,29.96,SW,228,0.0,2.0,35,0.00,,,0.00,Wunderground v.1.15,2013-03-30 04:05:00,
2013-03-29 21:10:00,73.3,43.2,29.96,SSE,159,0.0,0.0,34,0.00,,,0.00,Wunderground v.1.15,2013-03-30 04:10:00,
2013-03-29 21:15:00,73.3,42.4,29.96,SSE,149,0.0,0.0,33,0.00,,,0.00,Wunderground v.1.15,2013-03-30 04:15:00,
2013-03-29 21:20:00,73.6,41.9,29.96,SSW,200,0.0,1.0,32,0.00,,,0.00,Wunderground v.1.15,2013-03-30 04:20:00,
2013-03-29 21:25:00,74.0,40.6,29.96,South,174,0.0,2.0,30,0.00,,,0.00,Wunderground v.1.15,2013-03-30 04:25:00,
2013-03-29 21:30:00,74.5,41.0,29.97,SE,125,1.0,3.0,30,0.00,,,0.00,Wunderground v.1.15,2013-03-30 04:30:00,
2013-03-29 21:35:00,74.9,41.4,29.97,ESE,120,1.0,3.0,30,0.00,,,0.00,Wunderground v.1.15,2013-03-30 04:35:00,
2013-03-29 21:40:00,75.1,41.5,29.97,SSW,194,0.0,1.0,30,0.00,,,0.00,Wunderground v.1.15,2013-03-30 04:40:00,
2013-03-29 21:45:00,75.2,41.6,29.97,South,172,0.0,2.0,30,0.00,,,0.00,Wunderground v.1.15,2013-03-30 04:45:00,
2013-03-29 21:50:00,75.2,42.5,29.97,SE,125,0.0,1.0,31,0.00,,,0.00,Wunderground v.1.15,2013-03-30 04:50:00,
2013-03-29 21:55:00,75.4,41.8,29.97,ESE,123,0.0,1.0,30,0.00,,,0.00,Wunderground v.1.15,2013-03-30 04:55:00,
2013-03-29 22:00:00,75.5,42.7,29.97,SE,130,0.0,1.0,31,0.00,,,0.00,Wunderground v.1.15,2013-03-30 05:00:00,
2013-03-29 22:05:00,75.4,41.8,29.97,ESE,118,0.0,1.0,30,0.00,,,0.00,Wunderground v.1.15,2013-03-30 05:05:00,
2013-03-29 22:10:00,75.4,42.7,29.97,SE,127,0.0,1.0,31,0.00,,,0.00,Wunderground v.1.15,2013-03-30 05:10:00,
2013-03-29 22:15:00,75.5,42.7,29.98,ESE,118,1.0,1.0,31,0.00,,,0.00,Wunderground v.1.15,2013-03-30 05:15:00,
2013-03-29 22:20:00,75.6,42.0,29.98,ESE,121,1.0,1.0,30,0.00,,,0.00,Wunderground v.1.15,2013-03-30 05:20:00,
2013-03-29 22:25:00,75.7,42.1,29.98,ESE,115,0.0,1.0,30,0.00,,,0.00,Wunderground v.1.15,2013-03-30 05:25:00,
2013-03-29 22:30:00,75.6,42.0,29.98,ESE,120,0.0,1.0,30,0.00,,,0.00,Wunderground v.1.15,2013-03-30 05:30:00,
2013-03-29 22:35:00,75.5,41.9,29.98,SE,124,0.0,1.0,30,0.00,,,0.00,Wunderground v.1.15,2013-03-30 05:35:00,
2013-03-29 22:40:00,75.4,41.8,29.98,ESE,115,1.0,1.0,30,0.00,,,0.00,Wunderground v.1.15,2013-03-30 05:40:00,
2013-03-29 22:45:00,75.2,41.6,29.98,ESE,113,1.0,1.0,30,0.00,,,0.00,Wunderground v.1.15,2013-03-30 05:45:00,
2013-03-29 22:50:00,75.3,40.8,29.98,ESE,110,0.0,0.0,29,0.00,,,0.00,Wunderground v.1.15,2013-03-30 05:50:00,
2013-03-29 22:55:00,75.1,39.8,29.98,ESE,112,0.0,1.0,28,0.00,,,0.00,Wunderground v.1.15,2013-03-30 05:55:00,
2013-03-29 23:00:00,74.9,39.6,29.98,ESE,111,0.0,0.0,28,0.00,,,0.00,Wunderground v.1.15,2013-03-30 06:00:00,
2013-03-29 23:05:00,74.8,41.3,29.98,ESE,111,0.0,0.0,30,0.00,,,0.00,Wunderground v.1.15,2013-03-30 06:05:00,
2013-03-29 23:10:00,74.2,39.0,29.97,East,96,0.0,1.0,28,0.00,,,0.00,Wunderground v.1.15,2013-03-30 06:10:00,
2013-03-29 23:15:00,74.1,38.9,29.97,SE,132,0.0,1.0,28,0.00,,,0.00,Wunderground v.1.15,2013-03-30 06:15:00,
2013-03-29 23:20:00,74.2,39.0,29.97,ESE,115,1.0,2.0,28,0.00,,,0.00,Wunderground v.1.15,2013-03-30 06:20:00,
2013-03-29 23:25:00,74.3,39.1,29.97,ESE,118,1.0,2.0,28,0.00,,,0.00,Wunderground v.1.15,2013-03-30 06:25:00,
2013-03-29 23:30:00,74.4,39.2,29.98,SE,129,0.0,1.0,28,0.00,,,0.00,Wunderground v.1.15,2013-03-30 06:30:00,
2013-03-29 23:35:00,74.4,39.2,29.97,ESE,108,1.0,2.0,28,0.00,,,0.00,Wunderground v.1.15,2013-03-30 06:35:00,
2013-03-29 23:41:00,74.5,39.2,29.97,ESE,111,2.0,2.0,28,0.00,,,0.00,Wunderground v.1.15,2013-03-30 06:41:00,
2013-03-29 23:46:00,74.6,39.3,29.97,ESE,115,1.0,2.0,28,0.00,,,0.00,Wunderground v.1.15,2013-03-30 06:46:00,
2013-03-29 23:51:00,74.5,39.2,29.97,ESE,120,1.0,1.0,28,0.00,,,0.00,Wunderground v.1.15,2013-03-30 06:51:00,
2013-03-29 23:56:00,74.4,39.2,29.97,ESE,107,1.0,2.0,28,0.00,,,0.00,Wunderground v.1.15,2013-03-30 06:56:00,